createdAt,value
2022-08-26T00:00:25.407Z,1011.62
2022-08-26T00:01:29.893Z,1011.68
2022-08-26T00:02:25.450Z,1011.64
2022-08-26T00:03:25.407Z,1011.61
2022-08-26T00:04:25.876Z,1011.59
2022-08-26T00:05:25.404Z,1011.60
2022-08-26T00:06:25.402Z,1011.62
2022-08-26T00:07:25.396Z,1011.58
2022-08-26T00:08:25.395Z,1011.56
2022-08-26T00:09:25.401Z,1011.59
2022-08-26T00:10:25.885Z,1011.56
2022-08-26T00:11:26.993Z,1011.58
2022-08-26T00:12:31.517Z,1011.59
2022-08-26T00:13:25.396Z,1011.55
2022-08-26T00:14:30.785Z,1011.57
2022-08-26T00:15:25.388Z,1011.54
2022-08-26T00:16:25.433Z,1011.54
2022-08-26T00:17:25.388Z,1011.54
2022-08-26T00:18:25.384Z,1011.55
2022-08-26T00:19:25.387Z,1011.55
2022-08-26T00:20:25.381Z,1011.56
2022-08-26T00:21:25.381Z,1011.56
2022-08-26T00:22:25.381Z,1011.53
2022-08-26T00:23:25.386Z,1011.55
2022-08-26T00:24:25.422Z,1011.49
2022-08-26T00:25:25.422Z,1011.48
2022-08-26T00:26:28.476Z,1011.46
2022-08-26T00:27:25.390Z,1011.46
2022-08-26T00:28:25.372Z,1011.46
2022-08-26T00:29:25.383Z,1011.51
2022-08-26T00:30:26.514Z,1011.48
2022-08-26T00:31:25.423Z,1011.46
2022-08-26T00:32:25.368Z,1011.47
2022-08-26T00:33:25.368Z,1011.46
2022-08-26T00:34:25.367Z,1011.45
2022-08-26T00:35:25.365Z,1011.47
2022-08-26T00:36:25.367Z,1011.44
2022-08-26T00:37:25.361Z,1011.45
2022-08-26T00:38:25.362Z,1011.43
2022-08-26T00:39:25.363Z,1011.46
2022-08-26T00:40:25.481Z,1011.43
2022-08-26T00:41:25.358Z,1011.41
2022-08-26T00:42:25.353Z,1011.41
2022-08-26T00:43:25.356Z,1011.39
2022-08-26T00:44:25.352Z,1011.35
2022-08-26T00:45:25.390Z,1011.38
2022-08-26T00:46:25.347Z,1011.39
2022-08-26T00:47:25.347Z,1011.38
2022-08-26T00:48:25.351Z,1011.36
2022-08-26T00:49:25.346Z,1011.42
2022-08-26T00:50:25.345Z,1011.37
2022-08-26T00:51:29.794Z,1011.37
2022-08-26T00:52:25.342Z,1011.39
2022-08-26T00:53:26.057Z,1011.35
2022-08-26T00:54:26.907Z,1011.35
2022-08-26T00:55:25.338Z,1011.35
2022-08-26T00:56:25.334Z,1011.35
2022-08-26T00:57:25.338Z,1011.38
2022-08-26T00:58:25.334Z,1011.34
2022-08-26T00:59:25.332Z,1011.37
2022-08-26T01:00:25.332Z,1011.38
2022-08-26T01:01:25.357Z,1011.34
2022-08-26T01:02:25.375Z,1011.37
2022-08-26T01:03:25.329Z,1011.36
2022-08-26T01:04:26.149Z,1011.38
2022-08-26T01:05:25.324Z,1011.36
2022-08-26T01:06:25.326Z,1011.35
2022-08-26T01:07:25.327Z,1011.38
2022-08-26T01:08:25.319Z,1011.35
2022-08-26T01:09:25.320Z,1011.34
2022-08-26T01:10:25.320Z,1011.33
2022-08-26T01:11:25.318Z,1011.32
2022-08-26T01:12:25.315Z,1011.31
2022-08-26T01:13:25.316Z,1011.34
2022-08-26T01:14:25.313Z,1011.36
2022-08-26T01:15:25.313Z,1011.34
2022-08-26T01:16:25.375Z,1011.34
2022-08-26T01:17:25.309Z,1011.35
2022-08-26T01:18:25.329Z,1011.35
2022-08-26T01:19:25.305Z,1011.33
2022-08-26T01:20:25.305Z,1011.33
2022-08-26T01:21:25.316Z,1011.33
2022-08-26T01:22:28.259Z,1011.37
2022-08-26T01:23:25.299Z,1011.34
2022-08-26T01:24:25.299Z,1011.36
2022-08-26T01:25:25.298Z,1011.37
2022-08-26T01:26:25.295Z,1011.36
2022-08-26T01:27:25.298Z,1011.37
2022-08-26T01:28:25.293Z,1011.36
2022-08-26T01:29:25.291Z,1011.41
2022-08-26T01:30:25.295Z,1011.38
2022-08-26T01:31:25.350Z,1011.37
2022-08-26T01:32:25.284Z,1011.37
2022-08-26T01:33:25.288Z,1011.34
2022-08-26T01:34:25.307Z,1011.37
2022-08-26T01:35:25.281Z,1011.34
2022-08-26T01:36:25.281Z,1011.33
2022-08-26T01:37:25.306Z,1011.31
2022-08-26T01:38:25.299Z,1011.34
2022-08-26T01:39:25.324Z,1011.31
2022-08-26T01:40:25.315Z,1011.32
2022-08-26T01:41:27.513Z,1011.30
2022-08-26T01:42:25.279Z,1011.30
2022-08-26T01:43:25.272Z,1011.25
2022-08-26T01:44:25.268Z,1011.28
2022-08-26T01:45:25.339Z,1011.29
2022-08-26T01:46:25.266Z,1011.24
2022-08-26T01:47:25.263Z,1011.23
2022-08-26T01:48:25.267Z,1011.24
2022-08-26T01:49:26.017Z,1011.21
2022-08-26T01:50:28.149Z,1011.23
2022-08-26T01:51:25.258Z,1011.24
2022-08-26T01:52:28.134Z,1011.25
2022-08-26T01:53:25.257Z,1011.21
2022-08-26T01:54:25.256Z,1011.20
2022-08-26T01:55:32.318Z,1011.20
2022-08-26T01:56:25.251Z,1011.21
2022-08-26T01:57:25.252Z,1011.20
2022-08-26T01:58:25.249Z,1011.17
2022-08-26T01:59:25.247Z,1011.15
2022-08-26T02:00:25.246Z,1011.18
2022-08-26T02:01:29.156Z,1011.16
2022-08-26T02:02:25.243Z,1011.17
2022-08-26T02:03:25.273Z,1011.19
2022-08-26T02:04:25.271Z,1011.16
2022-08-26T02:05:25.238Z,1011.19
2022-08-26T02:06:25.257Z,1011.15
2022-08-26T02:07:26.747Z,1011.18
2022-08-26T02:08:25.357Z,1011.17
2022-08-26T02:09:25.233Z,1011.15
2022-08-26T02:10:25.234Z,1011.15
2022-08-26T02:11:25.229Z,1011.14
2022-08-26T02:12:25.229Z,1011.16
2022-08-26T02:13:25.231Z,1011.14
2022-08-26T02:14:26.795Z,1011.14
2022-08-26T02:15:25.224Z,1011.12
2022-08-26T02:16:25.303Z,1011.14
2022-08-26T02:17:25.226Z,1011.13
2022-08-26T02:18:25.220Z,1011.15
2022-08-26T02:19:25.218Z,1011.13
2022-08-26T02:20:26.476Z,1011.10
2022-08-26T02:21:25.215Z,1011.08
2022-08-26T02:22:25.213Z,1011.05
2022-08-26T02:23:25.212Z,1011.05
2022-08-26T02:24:27.584Z,1011.07
2022-08-26T02:25:25.209Z,1011.06
2022-08-26T02:26:25.209Z,1011.03
2022-08-26T02:27:25.208Z,1011.03
2022-08-26T02:28:26.602Z,1011.04
2022-08-26T02:29:25.215Z,1011.05
2022-08-26T02:30:25.201Z,1011.05
2022-08-26T02:31:25.218Z,1011.03
2022-08-26T02:32:25.201Z,1011.03
2022-08-26T02:33:25.196Z,1010.99
2022-08-26T02:34:25.192Z,1010.98
2022-08-26T02:35:25.191Z,1010.97
2022-08-26T02:36:25.192Z,1010.98
2022-08-26T02:37:25.191Z,1010.99
2022-08-26T02:38:25.189Z,1010.98
2022-08-26T02:39:25.188Z,1010.98
2022-08-26T02:40:25.230Z,1010.96
2022-08-26T02:41:25.186Z,1010.97
2022-08-26T02:42:25.183Z,1010.96
2022-08-26T02:43:31.493Z,1010.98
2022-08-26T02:44:25.451Z,1010.96
2022-08-26T02:45:25.176Z,1010.99
2022-08-26T02:46:29.789Z,1010.99
2022-08-26T02:47:25.172Z,1010.95
2022-08-26T02:48:25.177Z,1010.96
2022-08-26T02:49:25.174Z,1010.95
2022-08-26T02:50:25.212Z,1010.97
2022-08-26T02:51:25.167Z,1010.94
2022-08-26T02:52:25.166Z,1010.99
2022-08-26T02:53:25.643Z,1010.96
2022-08-26T02:54:25.162Z,1010.94
2022-08-26T02:55:25.161Z,1010.95
2022-08-26T02:56:25.160Z,1010.96
2022-08-26T02:57:25.155Z,1010.93
2022-08-26T02:58:25.158Z,1010.95
2022-08-26T02:59:25.153Z,1010.95
2022-08-26T03:00:25.184Z,1010.92
2022-08-26T03:01:25.210Z,1010.95
2022-08-26T03:02:25.185Z,1010.95
2022-08-26T03:03:25.145Z,1010.97
2022-08-26T03:04:25.820Z,1010.96
2022-08-26T03:05:25.144Z,1010.94
2022-08-26T03:06:25.139Z,1010.94
2022-08-26T03:07:25.138Z,1010.91
2022-08-26T03:08:25.137Z,1010.94
2022-08-26T03:09:25.136Z,1010.93
2022-08-26T03:10:26.015Z,1010.94
2022-08-26T03:11:27.523Z,1010.94
2022-08-26T03:12:25.722Z,1010.95
2022-08-26T03:13:25.131Z,1010.93
2022-08-26T03:14:25.126Z,1010.91
2022-08-26T03:15:25.128Z,1010.93
2022-08-26T03:16:25.177Z,1010.89
2022-08-26T03:17:25.123Z,1010.91
2022-08-26T03:18:25.119Z,1010.86
2022-08-26T03:19:25.145Z,1010.89
2022-08-26T03:20:25.116Z,1010.88
2022-08-26T03:21:25.118Z,1010.86
2022-08-26T03:22:25.115Z,1010.84
2022-08-26T03:23:25.110Z,1010.84
2022-08-26T03:24:25.112Z,1010.84
2022-08-26T03:25:25.110Z,1010.82
2022-08-26T03:26:25.106Z,1010.83
2022-08-26T03:27:25.106Z,1010.84
2022-08-26T03:28:27.178Z,1010.83
2022-08-26T03:29:25.100Z,1010.82
2022-08-26T03:30:25.106Z,1010.80
2022-08-26T03:31:25.131Z,1010.81
2022-08-26T03:32:27.133Z,1010.77
2022-08-26T03:33:25.097Z,1010.78
2022-08-26T03:34:25.091Z,1010.78
2022-08-26T03:35:25.095Z,1010.80
2022-08-26T03:36:25.088Z,1010.77
2022-08-26T03:37:25.090Z,1010.77
2022-08-26T03:38:25.087Z,1010.79
2022-08-26T03:39:25.082Z,1010.77
2022-08-26T03:40:25.193Z,1010.79
2022-08-26T03:41:25.081Z,1010.78
2022-08-26T03:42:25.078Z,1010.73
2022-08-26T03:43:25.074Z,1010.78
2022-08-26T03:44:25.077Z,1010.78
2022-08-26T03:45:25.073Z,1010.79
2022-08-26T03:46:25.096Z,1010.80
2022-08-26T03:47:25.068Z,1010.78
2022-08-26T03:48:25.067Z,1010.77
2022-08-26T03:49:25.068Z,1010.78
2022-08-26T03:50:25.065Z,1010.73
2022-08-26T03:51:25.061Z,1010.77
2022-08-26T03:52:25.061Z,1010.75
2022-08-26T03:53:25.061Z,1010.76
2022-08-26T03:54:25.054Z,1010.76
2022-08-26T03:55:25.057Z,1010.71
2022-08-26T03:56:25.053Z,1010.73
2022-08-26T03:57:25.050Z,1010.72
2022-08-26T03:58:25.052Z,1010.69
2022-08-26T03:59:25.051Z,1010.68
2022-08-26T04:00:25.040Z,1010.70
2022-08-26T04:01:25.113Z,1010.68
2022-08-26T04:02:25.080Z,1010.70
2022-08-26T04:03:25.108Z,1010.68
2022-08-26T04:04:25.036Z,1010.67
2022-08-26T04:05:25.043Z,1010.68
2022-08-26T04:06:25.039Z,1010.66
2022-08-26T04:07:25.035Z,1010.64
2022-08-26T04:08:25.031Z,1010.64
2022-08-26T04:09:25.076Z,1010.65
2022-08-26T04:10:29.316Z,1010.66
2022-08-26T04:11:25.029Z,1010.64
2022-08-26T04:12:25.024Z,1010.62
2022-08-26T04:13:25.024Z,1010.64
2022-08-26T04:14:25.020Z,1010.62
2022-08-26T04:15:25.017Z,1010.65
2022-08-26T04:16:25.091Z,1010.62
2022-08-26T04:17:25.137Z,1010.61
2022-08-26T04:18:25.011Z,1010.60
2022-08-26T04:19:25.007Z,1010.58
2022-08-26T04:20:25.013Z,1010.60
2022-08-26T04:21:25.008Z,1010.59
2022-08-26T04:22:25.181Z,1010.62
2022-08-26T04:23:25.004Z,1010.61
2022-08-26T04:24:25.014Z,1010.64
2022-08-26T04:25:24.999Z,1010.60
2022-08-26T04:26:25.001Z,1010.62
2022-08-26T04:27:24.999Z,1010.58
2022-08-26T04:28:24.991Z,1010.60
2022-08-26T04:29:24.994Z,1010.60
2022-08-26T04:30:24.989Z,1010.55
2022-08-26T04:31:25.015Z,1010.57
2022-08-26T04:32:24.985Z,1010.60
2022-08-26T04:33:32.437Z,1010.58
2022-08-26T04:34:24.982Z,1010.55
2022-08-26T04:35:26.129Z,1010.59
2022-08-26T04:36:24.977Z,1010.55
2022-08-26T04:37:24.977Z,1010.56
2022-08-26T04:38:24.974Z,1010.58
2022-08-26T04:39:25.329Z,1010.63
2022-08-26T04:40:25.120Z,1010.60
2022-08-26T04:41:24.972Z,1010.59
2022-08-26T04:42:26.080Z,1010.57
2022-08-26T04:43:24.965Z,1010.60
2022-08-26T04:44:24.968Z,1010.60
2022-08-26T04:45:24.965Z,1010.58
2022-08-26T04:46:24.998Z,1010.60
2022-08-26T04:47:28.067Z,1010.61
2022-08-26T04:48:24.958Z,1010.61
2022-08-26T04:49:26.009Z,1010.60
2022-08-26T04:50:24.952Z,1010.59
2022-08-26T04:51:24.953Z,1010.58
2022-08-26T04:52:24.951Z,1010.59
2022-08-26T04:53:24.950Z,1010.58
2022-08-26T04:54:25.084Z,1010.62
2022-08-26T04:55:25.193Z,1010.62
2022-08-26T04:56:24.943Z,1010.66
2022-08-26T04:57:24.947Z,1010.66
2022-08-26T04:58:24.942Z,1010.68
2022-08-26T04:59:24.938Z,1010.69
2022-08-26T05:00:24.937Z,1010.70
2022-08-26T05:01:24.999Z,1010.69
2022-08-26T05:02:24.933Z,1010.71
2022-08-26T05:03:24.935Z,1010.73
2022-08-26T05:04:24.984Z,1010.72
2022-08-26T05:05:24.931Z,1010.74
2022-08-26T05:06:24.929Z,1010.72
2022-08-26T05:07:24.929Z,1010.71
2022-08-26T05:08:24.926Z,1010.71
2022-08-26T05:09:24.927Z,1010.70
2022-08-26T05:10:24.929Z,1010.74
2022-08-26T05:11:24.920Z,1010.78
2022-08-26T05:12:24.925Z,1010.76
2022-08-26T05:13:24.923Z,1010.77
2022-08-26T05:14:24.917Z,1010.79
2022-08-26T05:15:24.917Z,1010.78
2022-08-26T05:16:24.953Z,1010.79
2022-08-26T05:17:24.914Z,1010.76
2022-08-26T05:18:24.909Z,1010.81
2022-08-26T05:19:24.908Z,1010.81
2022-08-26T05:20:26.201Z,1010.79
2022-08-26T05:21:24.909Z,1010.79
2022-08-26T05:22:24.908Z,1010.77
2022-08-26T05:23:24.905Z,1010.81
2022-08-26T05:24:24.901Z,1010.78
2022-08-26T05:25:24.903Z,1010.80
2022-08-26T05:26:24.898Z,1010.77
2022-08-26T05:27:24.900Z,1010.79
2022-08-26T05:28:24.899Z,1010.78
2022-08-26T05:29:24.902Z,1010.84
2022-08-26T05:30:24.894Z,1010.83
2022-08-26T05:31:24.926Z,1010.80
2022-08-26T05:32:24.893Z,1010.82
2022-08-26T05:33:24.895Z,1010.85
2022-08-26T05:34:25.757Z,1010.84
2022-08-26T05:35:24.890Z,1010.85
2022-08-26T05:36:26.840Z,1010.83
2022-08-26T05:37:24.889Z,1010.83
2022-08-26T05:38:24.887Z,1010.83
2022-08-26T05:39:24.889Z,1010.85
2022-08-26T05:40:24.996Z,1010.85
2022-08-26T05:41:24.884Z,1010.82
2022-08-26T05:42:24.883Z,1010.86
2022-08-26T05:43:24.884Z,1010.83
2022-08-26T05:44:24.883Z,1010.84
2022-08-26T05:45:24.881Z,1010.85
2022-08-26T05:46:24.926Z,1010.85
2022-08-26T05:47:24.880Z,1010.80
2022-08-26T05:48:24.889Z,1010.83
2022-08-26T05:49:26.415Z,1010.81
2022-08-26T05:50:24.878Z,1010.78
2022-08-26T05:51:26.129Z,1010.79
2022-08-26T05:52:25.950Z,1010.81
2022-08-26T05:53:26.081Z,1010.81
2022-08-26T05:54:24.889Z,1010.77
2022-08-26T05:55:24.873Z,1010.83
2022-08-26T05:56:24.923Z,1010.82
2022-08-26T05:57:24.877Z,1010.79
2022-08-26T05:58:24.875Z,1010.82
2022-08-26T05:59:24.932Z,1010.83
2022-08-26T06:00:24.875Z,1010.83
2022-08-26T06:01:24.917Z,1010.81
2022-08-26T06:02:24.914Z,1010.84
2022-08-26T06:03:24.875Z,1010.83
2022-08-26T06:04:28.707Z,1010.81
2022-08-26T06:05:24.873Z,1010.78
2022-08-26T06:06:27.333Z,1010.78
2022-08-26T06:07:24.877Z,1010.81
2022-08-26T06:08:24.875Z,1010.77
2022-08-26T06:09:24.880Z,1010.78
2022-08-26T06:10:33.048Z,1010.77
2022-08-26T06:11:24.877Z,1010.76
2022-08-26T06:12:24.875Z,1010.78
2022-08-26T06:13:24.874Z,1010.78
2022-08-26T06:14:24.875Z,1010.74
2022-08-26T06:15:24.874Z,1010.74
2022-08-26T06:16:24.949Z,1010.78
2022-08-26T06:17:24.886Z,1010.78
2022-08-26T06:18:24.875Z,1010.72
2022-08-26T06:19:24.885Z,1010.76
2022-08-26T06:20:24.877Z,1010.80
2022-08-26T06:21:24.878Z,1010.79
2022-08-26T06:22:24.878Z,1010.78
2022-08-26T06:23:24.878Z,1010.80
2022-08-26T06:24:27.173Z,1010.81
2022-08-26T06:25:24.881Z,1010.75
2022-08-26T06:26:24.879Z,1010.79
2022-08-26T06:27:27.281Z,1010.79
2022-08-26T06:28:24.884Z,1010.77
2022-08-26T06:29:24.939Z,1010.75
2022-08-26T06:30:24.906Z,1010.79
2022-08-26T06:31:24.921Z,1010.75
2022-08-26T06:32:24.890Z,1010.80
2022-08-26T06:33:24.892Z,1010.80
2022-08-26T06:34:29.642Z,1010.77
2022-08-26T06:35:24.890Z,1010.77
2022-08-26T06:36:24.894Z,1010.78
2022-08-26T06:37:24.895Z,1010.79
2022-08-26T06:38:24.895Z,1010.77
2022-08-26T06:39:24.901Z,1010.72
2022-08-26T06:40:24.995Z,1010.74
2022-08-26T06:41:24.903Z,1010.74
2022-08-26T06:42:24.907Z,1010.77
2022-08-26T06:43:24.903Z,1010.76
2022-08-26T06:44:24.907Z,1010.76
2022-08-26T06:45:24.909Z,1010.78
2022-08-26T06:46:24.956Z,1010.78
2022-08-26T06:47:24.919Z,1010.78
2022-08-26T06:48:24.919Z,1010.79
2022-08-26T06:49:26.720Z,1010.80
2022-08-26T06:50:24.941Z,1010.80
2022-08-26T06:51:24.922Z,1010.76
2022-08-26T06:52:24.923Z,1010.78
2022-08-26T06:53:24.927Z,1010.79
2022-08-26T06:54:24.924Z,1010.76
2022-08-26T06:55:27.071Z,1010.79
2022-08-26T06:56:24.935Z,1010.74
2022-08-26T06:57:24.937Z,1010.76
2022-08-26T06:58:24.940Z,1010.75
2022-08-26T06:59:24.949Z,1010.75
2022-08-26T07:00:24.945Z,1010.75
2022-08-26T07:01:24.990Z,1010.76
2022-08-26T07:02:24.966Z,1010.75
2022-08-26T07:03:24.956Z,1010.71
2022-08-26T07:04:24.962Z,1010.74
2022-08-26T07:05:24.961Z,1010.72
2022-08-26T07:06:24.964Z,1010.72
2022-08-26T07:07:24.968Z,1010.75
2022-08-26T07:08:24.970Z,1010.74
2022-08-26T07:09:24.975Z,1010.72
2022-08-26T07:10:24.977Z,1010.71
2022-08-26T07:11:24.984Z,1010.72
2022-08-26T07:12:24.985Z,1010.71
2022-08-26T07:13:29.972Z,1010.71
2022-08-26T07:14:24.995Z,1010.70
2022-08-26T07:15:27.280Z,1010.69
2022-08-26T07:16:24.999Z,1010.65
2022-08-26T07:17:25.176Z,1010.66
2022-08-26T07:18:25.006Z,1010.66
2022-08-26T07:19:30.623Z,1010.68
2022-08-26T07:20:25.030Z,1010.65
2022-08-26T07:21:25.018Z,1010.63
2022-08-26T07:22:25.032Z,1010.64
2022-08-26T07:23:25.026Z,1010.66
2022-08-26T07:24:25.047Z,1010.63
2022-08-26T07:25:25.037Z,1010.64
2022-08-26T07:26:25.040Z,1010.64
2022-08-26T07:27:25.043Z,1010.67
2022-08-26T07:28:25.063Z,1010.66
2022-08-26T07:29:25.057Z,1010.65
2022-08-26T07:30:25.055Z,1010.65
2022-08-26T07:31:25.097Z,1010.64
2022-08-26T07:32:25.065Z,1010.64
2022-08-26T07:33:25.076Z,1010.62
2022-08-26T07:34:25.076Z,1010.58
2022-08-26T07:35:25.079Z,1010.61
2022-08-26T07:36:25.084Z,1010.62
2022-08-26T07:37:25.084Z,1010.62
2022-08-26T07:38:25.092Z,1010.59
2022-08-26T07:39:25.101Z,1010.61
2022-08-26T07:40:25.194Z,1010.60
2022-08-26T07:41:25.167Z,1010.62
2022-08-26T07:42:25.108Z,1010.59
2022-08-26T07:43:25.114Z,1010.62
2022-08-26T07:44:25.122Z,1010.63
2022-08-26T07:45:25.122Z,1010.60
2022-08-26T07:46:26.973Z,1010.60
2022-08-26T07:47:26.238Z,1010.59
2022-08-26T07:48:25.135Z,1010.55
2022-08-26T07:49:25.244Z,1010.57
2022-08-26T07:50:48.976Z,1010.56
2022-08-26T07:51:25.149Z,1010.56
2022-08-26T07:52:27.049Z,1010.52
2022-08-26T07:53:25.160Z,1010.53
2022-08-26T07:54:26.667Z,1010.53
2022-08-26T07:55:25.161Z,1010.50
2022-08-26T07:56:25.164Z,1010.49
2022-08-26T07:57:25.170Z,1010.51
2022-08-26T07:58:25.176Z,1010.51
2022-08-26T07:59:25.173Z,1010.53
2022-08-26T08:00:25.177Z,1010.47
2022-08-26T08:01:25.253Z,1010.47
2022-08-26T08:02:25.182Z,1010.49
2022-08-26T08:03:25.187Z,1010.51
2022-08-26T08:04:26.713Z,1010.46
2022-08-26T08:05:33.299Z,1010.48
2022-08-26T08:06:27.235Z,1010.47
2022-08-26T08:07:38.733Z,1010.48
2022-08-26T08:08:27.555Z,1010.46
2022-08-26T08:09:25.214Z,1010.48
2022-08-26T08:10:25.285Z,1010.46
2022-08-26T08:11:25.212Z,1010.44
2022-08-26T08:12:25.217Z,1010.42
2022-08-26T08:13:25.231Z,1010.42
2022-08-26T08:14:25.219Z,1010.44
2022-08-26T08:15:25.226Z,1010.46
2022-08-26T08:16:25.285Z,1010.46
2022-08-26T08:17:25.231Z,1010.44
2022-08-26T08:18:25.226Z,1010.42
2022-08-26T08:19:33.095Z,1010.43
2022-08-26T08:20:25.232Z,1010.44
2022-08-26T08:21:25.236Z,1010.43
2022-08-26T08:22:25.239Z,1010.43
2022-08-26T08:23:25.241Z,1010.40
2022-08-26T08:24:25.246Z,1010.43
2022-08-26T08:25:25.247Z,1010.42
2022-08-26T08:26:25.250Z,1010.40
2022-08-26T08:27:25.255Z,1010.42
2022-08-26T08:28:25.255Z,1010.41
2022-08-26T08:29:25.257Z,1010.39
2022-08-26T08:30:25.258Z,1010.39
2022-08-26T08:31:54.404Z,1010.38
2022-08-26T08:32:25.264Z,1010.37
2022-08-26T08:33:25.269Z,1010.36
2022-08-26T08:34:25.866Z,1010.35
2022-08-26T08:35:25.272Z,1010.38
2022-08-26T08:36:25.275Z,1010.37
2022-08-26T08:37:25.277Z,1010.35
2022-08-26T08:38:25.283Z,1010.38
2022-08-26T08:39:25.298Z,1010.34
2022-08-26T08:40:25.321Z,1010.32
2022-08-26T08:41:25.290Z,1010.34
2022-08-26T08:42:25.290Z,1010.33
2022-08-26T08:43:25.294Z,1010.31
2022-08-26T08:45:25.302Z,1010.26
2022-08-26T08:46:25.357Z,1010.26
2022-08-26T08:47:25.307Z,1010.31
2022-08-26T08:48:27.794Z,1010.29
2022-08-26T08:49:25.311Z,1010.29
2022-08-26T08:50:25.312Z,1010.29
2022-08-26T08:51:25.318Z,1010.28
2022-08-26T08:52:25.319Z,1010.25
2022-08-26T08:53:25.322Z,1010.23
2022-08-26T08:54:25.326Z,1010.22
2022-08-26T08:55:25.327Z,1010.26
2022-08-26T08:56:25.333Z,1010.21
2022-08-26T08:57:25.333Z,1010.17
2022-08-26T08:58:25.333Z,1010.18
2022-08-26T08:59:25.337Z,1010.19
2022-08-26T09:00:30.134Z,1010.22
2022-08-26T09:01:25.392Z,1010.11
2022-08-26T09:02:25.380Z,1010.16
2022-08-26T09:03:25.350Z,1010.14
2022-08-26T09:04:25.353Z,1010.10
2022-08-26T09:05:25.358Z,1010.07
2022-08-26T09:06:25.384Z,1010.09
2022-08-26T09:07:25.366Z,1010.12
2022-08-26T09:08:25.366Z,1010.09
2022-08-26T09:09:25.368Z,1010.14
2022-08-26T09:10:25.371Z,1010.06
2022-08-26T09:11:25.372Z,1010.09
2022-08-26T09:12:29.896Z,1010.11
2022-08-26T09:13:27.165Z,1010.11
2022-08-26T09:14:25.381Z,1010.14
2022-08-26T09:15:26.400Z,1010.15
2022-08-26T09:16:25.474Z,1010.12
2022-08-26T09:17:25.387Z,1010.09
2022-08-26T09:18:25.389Z,1010.07
2022-08-26T09:19:25.396Z,1010.11
2022-08-26T09:20:25.398Z,1010.08
2022-08-26T09:21:25.482Z,1010.09
2022-08-26T09:22:25.409Z,1010.07
2022-08-26T09:23:25.409Z,1010.09
2022-08-26T09:24:28.512Z,1010.10
2022-08-26T09:25:25.412Z,1010.07
2022-08-26T09:26:28.675Z,1010.10
2022-08-26T09:27:25.416Z,1010.08
2022-08-26T09:28:25.426Z,1010.11
2022-08-26T09:29:25.425Z,1010.05
2022-08-26T09:30:25.491Z,1010.07
2022-08-26T09:31:25.480Z,1010.05
2022-08-26T09:32:25.431Z,1010.05
2022-08-26T09:33:25.434Z,1010.07
2022-08-26T09:34:25.433Z,1010.11
2022-08-26T09:35:25.443Z,1010.07
2022-08-26T09:36:25.442Z,1010.12
2022-08-26T09:37:25.448Z,1010.05
2022-08-26T09:38:26.781Z,1010.10
2022-08-26T09:39:25.450Z,1010.09
2022-08-26T09:40:27.046Z,1010.07
2022-08-26T09:41:25.455Z,1010.05
2022-08-26T09:42:25.466Z,1010.07
2022-08-26T09:43:25.465Z,1010.04
2022-08-26T09:44:25.461Z,1010.01
2022-08-26T09:45:25.469Z,1009.97
2022-08-26T09:46:25.588Z,1009.96
2022-08-26T09:47:25.472Z,1009.98
2022-08-26T09:48:25.473Z,1009.93
2022-08-26T09:49:25.593Z,1009.94
2022-08-26T09:50:28.802Z,1009.91
2022-08-26T09:51:25.483Z,1009.90
2022-08-26T09:52:25.484Z,1009.88
2022-08-26T09:53:28.634Z,1009.86
2022-08-26T09:54:25.493Z,1009.86
2022-08-26T09:55:25.493Z,1009.88
2022-08-26T09:56:25.497Z,1009.75
2022-08-26T09:57:25.531Z,1009.76
2022-08-26T09:58:25.500Z,1009.78
2022-08-26T09:59:25.509Z,1009.76
2022-08-26T10:00:25.512Z,1009.76
2022-08-26T10:01:25.562Z,1009.70
2022-08-26T10:02:25.517Z,1009.67
2022-08-26T10:03:25.517Z,1009.65
2022-08-26T10:04:25.584Z,1009.65
2022-08-26T10:05:25.526Z,1009.64
2022-08-26T10:06:25.537Z,1009.60
2022-08-26T10:07:25.529Z,1009.58
2022-08-26T10:08:25.534Z,1009.57
2022-08-26T10:09:25.539Z,1009.47
2022-08-26T10:10:25.539Z,1009.48
2022-08-26T10:11:25.544Z,1009.50
2022-08-26T10:12:25.548Z,1009.49
2022-08-26T10:13:25.548Z,1009.43
2022-08-26T10:14:25.634Z,1009.40
2022-08-26T10:15:25.558Z,1009.45
2022-08-26T10:16:25.677Z,1009.35
2022-08-26T10:17:25.563Z,1009.33
2022-08-26T10:18:25.938Z,1009.33
2022-08-26T10:19:25.568Z,1009.33
2022-08-26T10:20:25.619Z,1009.27
2022-08-26T10:21:25.574Z,1009.28
2022-08-26T10:22:25.578Z,1009.28
2022-08-26T10:23:25.606Z,1009.20
2022-08-26T10:24:25.587Z,1009.20
2022-08-26T10:25:25.588Z,1009.16
2022-08-26T10:26:25.594Z,1009.13
2022-08-26T10:27:25.592Z,1009.10
2022-08-26T10:28:25.593Z,1009.11
2022-08-26T10:29:25.600Z,1009.09
2022-08-26T10:30:25.607Z,1009.05
2022-08-26T10:31:27.924Z,1009.04
2022-08-26T10:32:25.651Z,1009.04
2022-08-26T10:33:25.614Z,1009.08
2022-08-26T10:34:25.617Z,1009.06
2022-08-26T10:35:25.620Z,1009.08
2022-08-26T10:36:25.623Z,1009.05
2022-08-26T10:37:25.628Z,1008.99
2022-08-26T10:38:25.628Z,1009.02
2022-08-26T10:39:25.736Z,1009.00
2022-08-26T10:40:25.695Z,1008.98
2022-08-26T10:41:25.643Z,1008.98
2022-08-26T10:42:25.641Z,1008.94
2022-08-26T10:43:25.786Z,1008.92
2022-08-26T10:44:25.647Z,1008.90
2022-08-26T10:45:25.657Z,1008.89
2022-08-26T10:46:27.384Z,1008.90
2022-08-26T10:47:25.664Z,1008.88
2022-08-26T10:48:25.662Z,1008.85
2022-08-26T10:49:25.666Z,1008.77
2022-08-26T10:50:25.672Z,1008.74
2022-08-26T10:51:25.679Z,1008.75
2022-08-26T10:52:29.386Z,1008.72
2022-08-26T10:53:26.374Z,1008.70
2022-08-26T10:54:25.686Z,1008.65
2022-08-26T10:55:25.692Z,1008.63
2022-08-26T10:56:25.693Z,1008.63
2022-08-26T10:57:25.699Z,1008.57
2022-08-26T10:58:26.618Z,1008.65
2022-08-26T10:59:25.713Z,1008.65
2022-08-26T11:00:27.501Z,1008.61
2022-08-26T11:01:25.768Z,1008.61
2022-08-26T11:02:25.716Z,1008.55
2022-08-26T11:03:25.720Z,1008.53
2022-08-26T11:04:25.767Z,1008.56
2022-08-26T11:05:25.730Z,1008.62
2022-08-26T11:06:25.731Z,1008.53
2022-08-26T11:07:25.737Z,1008.50
2022-08-26T11:08:25.741Z,1008.44
2022-08-26T11:09:25.810Z,1008.49
2022-08-26T11:10:25.758Z,1008.49
2022-08-26T11:11:25.752Z,1008.45
2022-08-26T11:12:25.756Z,1008.46
2022-08-26T11:13:25.760Z,1008.45
2022-08-26T11:14:29.077Z,1008.48
2022-08-26T11:15:25.773Z,1008.48
2022-08-26T11:16:25.823Z,1008.52
2022-08-26T11:17:25.775Z,1008.53
2022-08-26T11:18:25.777Z,1008.53
2022-08-26T11:19:26.356Z,1008.51
2022-08-26T11:20:25.787Z,1008.52
2022-08-26T11:21:25.789Z,1008.50
2022-08-26T11:22:25.792Z,1008.43
2022-08-26T11:23:25.795Z,1008.46
2022-08-26T11:24:25.802Z,1008.42
2022-08-26T11:25:29.905Z,1008.36
2022-08-26T11:26:35.433Z,1008.28
2022-08-26T11:27:25.813Z,1008.28
2022-08-26T11:28:25.813Z,1008.26
2022-08-26T11:29:25.816Z,1008.23
2022-08-26T11:30:25.821Z,1008.19
2022-08-26T11:31:25.913Z,1008.12
2022-08-26T11:32:25.903Z,1008.13
2022-08-26T11:33:25.840Z,1008.08
2022-08-26T11:34:25.836Z,1008.11
2022-08-26T11:35:25.844Z,1008.12
2022-08-26T11:36:25.842Z,1008.13
2022-08-26T11:37:25.848Z,1008.23
2022-08-26T11:38:25.850Z,1008.22
2022-08-26T11:39:25.853Z,1008.30
2022-08-26T11:40:25.868Z,1008.25
2022-08-26T11:41:25.862Z,1008.22
2022-08-26T11:42:27.766Z,1008.23
2022-08-26T11:43:25.871Z,1008.28
2022-08-26T11:44:25.875Z,1008.32
2022-08-26T11:45:25.894Z,1008.40
2022-08-26T11:46:25.880Z,1008.44
2022-08-26T11:47:25.885Z,1008.48
2022-08-26T11:48:25.888Z,1008.49
2022-08-26T11:49:25.890Z,1008.55
2022-08-26T11:50:25.892Z,1008.51
2022-08-26T11:51:25.912Z,1008.60
2022-08-26T11:52:25.899Z,1008.61
2022-08-26T11:53:26.141Z,1008.56
2022-08-26T11:54:34.984Z,1008.62
2022-08-26T11:55:25.911Z,1008.63
2022-08-26T11:56:25.919Z,1008.63
2022-08-26T11:57:25.914Z,1008.72
2022-08-26T11:58:25.914Z,1008.77
2022-08-26T11:59:25.941Z,1008.76
2022-08-26T12:00:25.921Z,1008.85
2022-08-26T12:01:25.928Z,1008.99
2022-08-26T12:02:25.925Z,1008.99
2022-08-26T12:03:26.012Z,1009.13
2022-08-26T12:04:25.967Z,1009.18
2022-08-26T12:05:26.804Z,1009.19
2022-08-26T12:07:26.083Z,1009.27